Time;durP1;ratioP1;P1;durP2;ratioP2;P2;SDS_P1;SDS_P2;PMS_P1;PMS_P2;Temp;Humidity;BMP_temperature;BMP_pressure;BME280_temperature;BME280_humidity;BME280_pressure;Samples;Min_cycle;Max_cycle;Signal;HPM_P1;HPM_P2
2022/06/30 00:02:42;;;;;;;1.73;1.53;;;19.20;99.90;;;;;;4873672;29;20313;-96
2022/06/30 00:05:29;;;;;;;1.67;1.30;;;19.30;99.90;;;;;;4873836;29;20314;-96
2022/06/30 00:08:11;;;;;;;1.90;1.60;;;19.40;99.90;;;;;;4873242;29;20226;-96
2022/06/30 00:10:46;;;;;;;2.93;1.40;;;19.60;99.90;;;;;;4871909;29;20221;-96
2022/06/30 00:13:18;;;;;;;2.00;1.23;;;19.80;99.90;;;;;;4866685;29;20242;-96
2022/06/30 00:15:51;;;;;;;3.13;1.40;;;19.70;99.90;;;;;;4866574;29;20318;-96
2022/06/30 00:18:25;;;;;;;1.40;1.10;;;19.70;99.90;;;;;;4872243;29;20218;-96
2022/06/30 00:21:09;;;;;;;1.90;1.60;;;19.70;99.90;;;;;;4872482;29;20244;-96
2022/06/30 00:23:43;;;;;;;2.67;1.57;;;19.70;99.90;;;;;;4869865;29;20734;-96
2022/06/30 00:26:19;;;;;;;2.47;1.63;;;19.60;99.90;;;;;;4871628;29;20268;-96
2022/06/30 00:28:51;;;;;;;5.07;1.60;;;19.60;99.90;;;;;;4873673;29;20275;-96
2022/06/30 00:31:23;;;;;;;1.97;1.50;;;19.70;99.90;;;;;;4870942;29;20214;-96
2022/06/30 00:33:57;;;;;;;2.30;1.53;;;19.70;99.90;;;;;;4869540;29;20258;-96
2022/06/30 00:36:31;;;;;;;2.23;1.40;;;19.70;99.90;;;;;;4870651;29;20218;-96
2022/06/30 00:39:04;;;;;;;2.60;1.30;;;19.70;99.90;;;;;;4873513;29;20219;-96
2022/06/30 00:53:38;;;;;;;1.87;1.37;;;19.80;99.90;;;;;;5148284;28;20257;-96
2022/06/30 00:56:14;;;;;;;2.83;1.30;;;19.90;99.90;;;;;;5149250;28;20197;-96
2022/06/30 01:09:09;;;;;;;2.17;1.60;;;19.60;99.90;;;;;;5152753;27;20205;-96
2022/06/30 01:15:25;;;;;;;2.53;1.83;;;19.50;99.90;;;;;;5152610;27;20233;-96
2022/06/30 01:20:55;;;;;;;3.10;1.43;;;19.60;99.90;;;;;;5398459;22;20257;-96
2022/06/30 01:23:39;;;;;;;2.40;1.30;;;19.60;99.90;;;;;;5093081;28;20226;-96
2022/06/30 01:26:20;;;;;;;2.50;1.60;;;19.80;99.90;;;;;;5092639;28;20246;-96
2022/06/30 01:28:55;;;;;;;3.37;1.77;;;19.90;99.90;;;;;;5093392;28;20250;-96
2022/06/30 01:31:27;;;;;;;2.57;1.43;;;20.00;99.90;;;;;;5092705;28;20191;-96
2022/06/30 01:34:13;;;;;;;2.37;1.30;;;20.10;99.90;;;;;;5092908;28;20256;-96
2022/06/30 01:36:57;;;;;;;2.93;1.77;;;20.20;99.90;;;;;;5093562;28;20208;-96
2022/06/30 01:39:31;;;;;;;3.53;1.40;;;20.60;99.90;;;;;;5093155;28;20207;-96
2022/06/30 01:42:03;;;;;;;2.33;1.40;;;21.50;99.90;;;;;;5092188;28;20644;-96
2022/06/30 01:44:34;;;;;;;2.97;1.27;;;22.60;99.90;;;;;;5091887;28;20246;-94
2022/06/30 01:47:07;;;;;;;1.90;1.33;;;23.00;99.90;;;;;;5092448;28;20220;-95
2022/06/30 01:49:39;;;;;;;2.57;1.23;;;23.70;99.90;;;;;;5090037;28;20207;-96
2022/06/30 01:52:12;;;;;;;3.23;1.50;;;23.60;99.90;;;;;;5078340;28;20216;-96
2022/06/30 01:55:16;;;;;;;1.73;1.20;;;23.10;99.90;;;;;;5084063;28;20208;-96
2022/06/30 01:57:56;;;;;;;1.23;1.10;;;22.30;99.90;;;;;;5067659;28;20239;-96
2022/06/30 02:00:29;;;;;;;3.47;1.20;;;22.20;99.90;;;;;;5064976;28;20216;-96
2022/06/30 02:03:03;;;;;;;1.30;1.20;;;22.20;99.90;;;;;;5064497;28;20216;-96
2022/06/30 02:08:29;;;;;;;3.47;1.20;;;22.00;99.90;;;;;;5069740;28;20192;-96
2022/06/30 02:14:10;;;;;;;2.93;1.20;;;23.00;99.90;;;;;;6100065;22;20211;-96
2022/06/30 02:16:47;;;;;;;1.80;1.17;;;23.70;99.90;;;;;;5079433;28;20203;-96
2022/06/30 02:24:44;;;;;;;1.60;1.13;;;23.60;99.90;;;;;;5506768;22;20256;-96
2022/06/30 02:27:20;;;;;;;2.53;1.40;;;24.00;99.90;;;;;;5078660;28;20187;-96
2022/06/30 02:30:00;;;;;;;1.50;1.30;;;24.30;99.90;;;;;;5682656;22;20240;-96
2022/06/30 02:35:20;;;;;;;1.43;1.30;;;23.50;99.90;;;;;;5075726;28;20559;-96
2022/06/30 02:56:55;;;;;;;1.30;1.20;;;19.70;99.90;;;;;;5468509;22;20403;-96
2022/06/30 02:59:36;;;;;;;3.77;1.40;;;19.60;99.90;;;;;;5071948;28;20212;-96
2022/06/30 03:02:23;;;;;;;1.47;1.20;;;19.50;99.90;;;;;;5070672;28;20208;-96
2022/06/30 03:04:59;;;;;;;1.63;1.17;;;19.30;99.90;;;;;;5071569;28;20239;-96
2022/06/30 03:07:44;;;;;;;2.43;1.40;;;19.30;99.90;;;;;;5072864;28;20192;-96
2022/06/30 03:13:31;;;;;;;1.73;1.23;;;19.10;99.90;;;;;;5071994;28;20199;-96
2022/06/30 03:16:23;;;;;;;2.07;1.47;;;19.00;99.90;;;;;;5076980;28;20236;-96
2022/06/30 03:19:05;;;;;;;1.43;1.10;;;18.70;99.90;;;;;;5072895;28;20204;-96
2022/06/30 03:27:22;;;;;;;1.43;1.20;;;18.40;99.90;;;;;;5070538;28;20296;-96
2022/06/30 03:36:37;;;;;;;2.77;1.53;;;18.20;99.90;;;;;;5065111;28;20265;-96
2022/06/30 03:42:31;;;;;;;3.90;1.17;;;17.80;99.90;;;;;;5070745;28;20238;-96
2022/06/30 03:54:31;;;;;;;1.33;1.23;;;17.10;99.90;;;;;;5077954;28;20264;-96
2022/06/30 04:00:19;;;;;;;4.50;1.40;;;16.90;99.90;;;;;;5057184;28;20185;-96
2022/06/30 04:05:54;;;;;;;1.40;1.20;;;16.70;99.90;;;;;;5053942;28;20239;-96
2022/06/30 04:08:39;;;;;;;2.20;1.30;;;16.60;99.90;;;;;;5038506;28;20259;-96
2022/06/30 04:11:40;;;;;;;1.37;1.27;;;16.60;99.90;;;;;;5045644;28;20216;-96
2022/06/30 04:17:55;;;;;;;5.63;1.70;;;16.40;99.90;;;;;;5043226;28;20208;-96
2022/06/30 04:20:27;;;;;;;2.87;1.20;;;16.40;99.90;;;;;;5047280;28;20267;-96
2022/06/30 04:22:59;;;;;;;4.63;1.40;;;16.40;99.90;;;;;;5050753;28;20196;-95
2022/06/30 04:25:47;;;;;;;1.53;1.40;;;16.30;99.90;;;;;;5051863;28;20260;-96
2022/06/30 04:34:06;;;;;;;3.80;1.90;;;16.10;99.90;;;;;;5054305;28;20200;-96
2022/06/30 04:36:38;;;;;;;2.60;1.90;;;16.00;99.90;;;;;;5056782;28;20192;-96
2022/06/30 04:39:10;;;;;;;1.87;1.60;;;16.00;99.90;;;;;;5056703;28;20220;-96
2022/06/30 04:41:41;;;;;;;2.47;1.50;;;15.90;99.90;;;;;;5056152;28;20242;-96
2022/06/30 04:44:14;;;;;;;2.20;1.50;;;15.80;99.90;;;;;;5036203;28;20237;-96
2022/06/30 04:46:48;;;;;;;1.70;1.60;;;15.80;99.90;;;;;;5049089;28;20212;-96
2022/06/30 04:49:24;;;;;;;3.43;1.47;;;15.70;99.90;;;;;;5043927;28;20208;-96
2022/06/30 04:51:56;;;;;;;1.93;1.50;;;15.70;99.90;;;;;;5039417;28;20212;-96
2022/06/30 04:54:32;;;;;;;2.27;1.50;;;15.60;99.90;;;;;;5040057;28;20213;-96
2022/06/30 04:57:04;;;;;;;2.30;1.47;;;15.60;99.90;;;;;;5040012;28;20204;-96
2022/06/30 04:59:38;;;;;;;2.37;2.03;;;15.50;99.90;;;;;;5038923;28;20208;-96
2022/06/30 05:02:10;;;;;;;2.17;1.73;;;15.50;99.90;;;;;;5042547;28;20612;-96
2022/06/30 05:04:46;;;;;;;3.37;1.63;;;15.50;99.90;;;;;;5037458;28;20268;-96
2022/06/30 05:10:16;;;;;;;2.37;1.90;;;15.40;99.90;;;;;;5044829;28;20212;-96
2022/06/30 05:12:49;;;;;;;2.70;1.73;;;15.40;99.90;;;;;;5037023;28;20213;-96
2022/06/30 05:15:21;;;;;;;3.53;1.47;;;15.30;99.90;;;;;;5037161;28;20255;-96
2022/06/30 05:17:53;;;;;;;5.33;1.60;;;15.20;99.90;;;;;;5036608;28;20228;-96
2022/06/30 05:20:27;;;;;;;1.63;1.40;;;15.20;99.90;;;;;;5035985;28;20739;-96
2022/06/30 05:22:59;;;;;;;1.60;1.47;;;15.10;99.90;;;;;;5037386;28;20620;-96
2022/06/30 05:28:38;;;;;;;2.10;1.40;;;15.00;99.90;;;;;;5037425;28;20288;-96
2022/06/30 05:31:10;;;;;;;2.20;1.53;;;14.90;99.90;;;;;;5040609;28;20228;-96
2022/06/30 05:33:43;;;;;;;3.10;1.67;;;14.90;99.90;;;;;;5041174;28;20292;-96
2022/06/30 05:36:28;;;;;;;1.87;1.50;;;14.90;99.90;;;;;;5041068;28;20267;-96
2022/06/30 05:39:00;;;;;;;1.90;1.80;;;14.80;99.90;;;;;;5041056;28;20200;-96
2022/06/30 05:41:31;;;;;;;1.87;1.70;;;14.80;99.90;;;;;;5040088;28;20204;-96
2022/06/30 05:44:03;;;;;;;2.17;1.97;;;14.70;99.90;;;;;;5041169;28;20569;-96
2022/06/30 05:46:37;;;;;;;4.17;2.00;;;14.70;99.90;;;;;;5041245;28;20235;-96
2022/06/30 05:49:09;;;;;;;2.20;2.00;;;14.70;99.90;;;;;;5041272;28;20209;-96
2022/06/30 05:51:43;;;;;;;3.67;2.20;;;14.60;99.90;;;;;;5040439;28;20308;-96
2022/06/30 05:54:16;;;;;;;2.57;2.03;;;14.60;99.90;;;;;;5023866;28;20296;-96
2022/06/30 05:56:48;;;;;;;2.60;2.40;;;14.60;99.90;;;;;;5040880;28;20213;-96
2022/06/30 05:59:20;;;;;;;3.77;2.30;;;14.60;99.90;;;;;;5025040;28;20213;-96
2022/06/30 06:01:52;;;;;;;5.60;2.80;;;14.60;99.90;;;;;;5020004;28;20213;-96
2022/06/30 06:04:25;;;;;;;3.00;2.37;;;14.60;99.90;;;;;;5020113;28;20222;-95
2022/06/30 06:07:02;;;;;;;2.73;2.30;;;14.60;99.90;;;;;;5009872;28;20250;-96
2022/06/30 06:09:34;;;;;;;2.87;2.23;;;14.70;99.90;;;;;;5041684;28;20239;-96
2022/06/30 06:14:53;;;;;;;2.37;2.17;;;14.80;99.90;;;;;;5038922;28;20259;-96
2022/06/30 06:17:29;;;;;;;2.80;2.20;;;14.80;99.90;;;;;;5040139;28;20212;-96
2022/06/30 06:20:01;;;;;;;1.80;1.70;;;14.80;99.90;;;;;;5039320;28;20208;-96
2022/06/30 06:30:09;;;;;;;3.27;1.90;;;14.70;99.90;;;;;;5024770;28;20240;-96
2022/06/30 06:36:00;;;;;;;1.97;1.70;;;14.60;99.90;;;;;;5021581;28;20229;-96
2022/06/30 06:38:33;;;;;;;2.40;1.83;;;14.60;99.90;;;;;;5022928;28;20206;-96
2022/06/30 06:41:09;;;;;;;2.50;1.73;;;14.50;99.90;;;;;;5040920;28;20657;-96
2022/06/30 06:43:40;;;;;;;1.83;1.70;;;14.50;99.90;;;;;;5042714;28;20228;-96
2022/06/30 06:46:14;;;;;;;2.07;1.83;;;14.40;99.90;;;;;;5041721;28;20719;-96
2022/06/30 06:48:48;;;;;;;1.90;1.70;;;14.40;99.90;;;;;;5026926;28;20209;-96
2022/06/30 06:51:23;;;;;;;1.70;1.60;;;14.40;99.90;;;;;;5043238;28;20212;-96
2022/06/30 06:53:57;;;;;;;1.90;1.70;;;14.40;99.90;;;;;;5041946;28;20204;-96
2022/06/30 06:56:30;;;;;;;3.50;2.00;;;14.40;99.90;;;;;;5024350;28;20221;-96
2022/06/30 06:59:04;;;;;;;2.07;1.83;;;14.40;99.90;;;;;;5044372;28;20231;-96
2022/06/30 07:01:35;;;;;;;3.00;2.00;;;14.40;99.90;;;;;;5040932;28;20256;-96
2022/06/30 07:04:09;;;;;;;2.20;2.00;;;14.30;99.90;;;;;;5043607;28;20221;-96
2022/06/30 07:06:43;;;;;;;3.80;2.00;;;14.30;99.90;;;;;;5042251;28;20296;-96
2022/06/30 07:09:15;;;;;;;4.03;1.83;;;14.30;99.90;;;;;;5041747;28;20205;-95
2022/06/30 07:11:49;;;;;;;4.27;1.93;;;14.30;99.90;;;;;;5043721;28;20217;-96
2022/06/30 07:14:20;;;;;;;3.23;1.77;;;14.20;99.90;;;;;;5052561;28;20213;-96
2022/06/30 07:16:52;;;;;;;1.90;1.67;;;14.20;99.90;;;;;;5044357;28;20508;-96
2022/06/30 07:19:24;;;;;;;2.47;1.70;;;14.10;99.90;;;;;;5043898;28;20209;-96
2022/06/30 07:21:59;;;;;;;2.63;1.83;;;14.00;99.90;;;;;;5039859;28;20716;-96
2022/06/30 07:24:31;;;;;;;1.77;1.67;;;14.00;99.90;;;;;;5040812;28;20208;-96
2022/06/30 07:27:05;;;;;;;3.07;1.90;;;14.00;99.90;;;;;;5046193;28;20228;-96
2022/06/30 07:29:37;;;;;;;2.90;2.20;;;14.00;99.90;;;;;;5027246;28;20662;-96
2022/06/30 07:32:11;;;;;;;1.70;1.60;;;13.90;99.90;;;;;;5018930;28;20217;-96
2022/06/30 07:34:43;;;;;;;1.97;1.77;;;13.90;99.90;;;;;;5023572;28;20206;-96
2022/06/30 07:37:41;;;;;;;2.47;1.90;;;13.90;99.90;;;;;;5026471;28;20232;-96
2022/06/30 07:40:15;;;;;;;1.90;1.80;;;13.80;99.90;;;;;;5029841;28;20237;-96
2022/06/30 07:42:51;;;;;;;2.37;1.97;;;13.80;99.90;;;;;;5010977;28;20208;-96
2022/06/30 07:45:24;;;;;;;3.40;2.00;;;13.80;99.90;;;;;;5026788;28;20742;-96
2022/06/30 07:47:57;;;;;;;3.30;2.13;;;13.70;99.90;;;;;;5022801;28;20208;-96
2022/06/30 07:50:28;;;;;;;2.23;1.77;;;13.70;99.90;;;;;;5019039;28;20221;-96
2022/06/30 08:03:08;;;;;;;2.30;1.90;;;13.60;99.90;;;;;;5167949;27;20208;-96
2022/06/30 08:08:43;;;;;;;2.10;1.90;;;13.50;99.90;;;;;;5168296;27;20193;-96
2022/06/30 08:11:17;;;;;;;2.93;2.20;;;13.50;99.90;;;;;;5158821;27;20253;-96
2022/06/30 08:13:50;;;;;;;4.30;2.47;;;13.50;99.90;;;;;;5161145;27;20216;-96
2022/06/30 08:16:26;;;;;;;3.30;2.03;;;13.50;99.90;;;;;;5156635;27;20205;-96
2022/06/30 08:19:05;;;;;;;2.27;2.07;;;13.50;99.90;;;;;;5156417;27;20277;-96
2022/06/30 08:21:36;;;;;;;2.63;2.37;;;13.40;99.90;;;;;;5155953;27;20231;-96
2022/06/30 08:24:08;;;;;;;2.37;2.17;;;13.40;99.90;;;;;;5157114;27;20213;-96
2022/06/30 08:26:41;;;;;;;4.70;2.40;;;13.40;99.90;;;;;;5159676;27;20250;-95
2022/06/30 08:29:14;;;;;;;4.40;2.10;;;13.40;99.90;;;;;;5143853;27;20210;-96
2022/06/30 08:31:48;;;;;;;2.20;2.00;;;13.40;99.90;;;;;;5154503;27;20213;-96
2022/06/30 08:34:20;;;;;;;4.00;2.63;;;13.40;99.90;;;;;;5141056;28;20245;-96
2022/06/30 08:37:07;;;;;;;2.77;2.57;;;13.30;99.90;;;;;;5150100;27;20190;-96
2022/06/30 08:45:52;;;;;;;3.23;2.40;;;13.20;99.90;;;;;;5142844;27;20211;-96
2022/06/30 08:48:26;;;;;;;2.97;2.50;;;13.10;99.90;;;;;;5142017;28;20257;-96
2022/06/30 08:51:05;;;;;;;3.23;2.57;;;13.10;99.90;;;;;;5140045;28;20649;-96
2022/06/30 08:53:43;;;;;;;2.90;2.40;;;13.10;99.90;;;;;;5137977;28;20207;-96
2022/06/30 08:56:17;;;;;;;3.47;2.93;;;13.10;99.90;;;;;;5137860;28;20236;-96
2022/06/30 08:58:51;;;;;;;2.90;2.60;;;13.10;99.90;;;;;;5149539;27;20241;-96
2022/06/30 09:01:24;;;;;;;4.10;2.67;;;13.10;99.90;;;;;;5158606;27;20206;-96
2022/06/30 09:04:01;;;;;;;3.60;2.83;;;13.10;99.90;;;;;;5162014;27;20543;-96
2022/06/30 09:06:32;;;;;;;2.87;2.67;;;13.00;99.90;;;;;;5161671;27;20213;-96
2022/06/30 09:09:08;;;;;;;5.03;2.70;;;13.00;99.90;;;;;;5156286;27;20277;-96
2022/06/30 09:11:55;;;;;;;3.10;2.63;;;13.00;99.90;;;;;;5143374;27;20213;-96
2022/06/30 09:14:35;;;;;;;3.70;2.60;;;12.90;99.90;;;;;;5146021;27;20223;-96
2022/06/30 09:17:09;;;;;;;3.77;2.83;;;12.90;99.90;;;;;;5143139;27;20209;-96
2022/06/30 09:19:54;;;;;;;2.93;2.70;;;12.80;99.90;;;;;;5144834;27;20305;-96
2022/06/30 09:22:26;;;;;;;2.87;2.57;;;12.80;99.90;;;;;;5145646;27;20258;-96
2022/06/30 09:25:04;;;;;;;4.40;3.00;;;12.80;99.90;;;;;;5145691;27;20209;-96
2022/06/30 09:27:37;;;;;;;4.00;2.70;;;12.80;99.90;;;;;;5149659;27;20787;-95
2022/06/30 09:30:11;;;;;;;3.20;2.90;;;12.80;99.90;;;;;;5159251;27;20211;-96
2022/06/30 09:32:48;;;;;;;3.50;3.20;;;12.80;99.90;;;;;;5159812;27;20201;-95
2022/06/30 09:35:23;;;;;;;3.10;2.77;;;12.80;99.90;;;;;;5160179;27;20235;-96
2022/06/30 09:38:03;;;;;;;3.50;3.17;;;12.80;99.90;;;;;;5160214;27;20270;-96
2022/06/30 09:40:37;;;;;;;5.13;3.07;;;12.70;99.90;;;;;;5153581;27;20212;-95
2022/06/30 09:43:09;;;;;;;3.43;3.13;;;12.70;99.90;;;;;;5146348;27;20205;-96
2022/06/30 09:45:43;;;;;;;3.40;3.07;;;12.70;99.90;;;;;;5145493;27;20197;-96
2022/06/30 09:48:17;;;;;;;4.20;3.27;;;12.60;99.90;;;;;;5146411;27;20216;-96
2022/06/30 09:51:02;;;;;;;3.20;2.90;;;12.60;99.90;;;;;;5144424;27;20209;-96
2022/06/30 09:53:36;;;;;;;3.50;3.20;;;12.60;99.90;;;;;;5144422;27;20202;-96
2022/06/30 09:56:14;;;;;;;3.73;3.30;;;12.50;99.90;;;;;;5145853;27;20200;-95
2022/06/30 09:58:47;;;;;;;3.87;2.80;;;12.60;99.90;;;;;;5134195;27;20232;-95
2022/06/30 10:01:18;;;;;;;3.40;3.07;;;12.50;99.90;;;;;;5158054;27;20665;-96
2022/06/30 10:04:08;;;;;;;4.13;3.47;;;12.50;99.90;;;;;;5159727;27;20193;-95
2022/06/30 10:06:41;;;;;;;3.73;2.87;;;12.50;99.90;;;;;;5159912;27;20235;-96
2022/06/30 10:09:18;;;;;;;3.93;3.37;;;12.40;99.90;;;;;;5158819;27;20193;-96
2022/06/30 10:11:55;;;;;;;3.33;3.03;;;12.40;99.90;;;;;;5151498;27;20213;-96
2022/06/30 10:14:34;;;;;;;3.67;2.73;;;12.40;99.90;;;;;;5144070;27;20209;-95
2022/06/30 10:17:08;;;;;;;3.33;2.87;;;12.40;99.90;;;;;;5143533;27;20671;-96
2022/06/30 10:19:40;;;;;;;3.53;3.23;;;12.40;99.90;;;;;;5142192;27;20239;-95
2022/06/30 10:22:15;;;;;;;6.50;3.17;;;12.30;99.90;;;;;;5140374;27;20227;-96
2022/06/30 10:24:48;;;;;;;3.37;3.07;;;12.30;99.90;;;;;;5141997;27;20565;-95
2022/06/30 10:27:21;;;;;;;3.13;2.83;;;12.30;99.90;;;;;;5141286;27;20210;-96
2022/06/30 10:29:56;;;;;;;3.43;2.73;;;12.20;99.90;;;;;;5140644;27;20201;-96
2022/06/30 10:32:44;;;;;;;3.90;2.80;;;12.20;99.90;;;;;;5140984;27;20657;-96
2022/06/30 10:35:23;;;;;;;3.27;2.70;;;12.20;99.90;;;;;;5142807;22;20262;-96
2022/06/30 10:38:01;;;;;;;4.47;2.97;;;12.20;99.90;;;;;;5059428;28;20208;-96
2022/06/30 10:40:52;;;;;;;3.00;2.70;;;12.20;99.90;;;;;;5060628;28;20239;-96
2022/06/30 10:43:23;;;;;;;3.83;3.00;;;12.10;99.90;;;;;;5059271;28;20270;-96
2022/06/30 10:46:05;;;;;;;3.13;2.83;;;12.10;99.90;;;;;;5058990;28;20212;-96
2022/06/30 10:48:55;;;;;;;4.30;3.10;;;12.10;99.90;;;;;;5063234;28;20307;-96
2022/06/30 10:51:36;;;;;;;3.37;3.07;;;12.10;99.90;;;;;;5058894;28;20266;-96
2022/06/30 10:54:13;;;;;;;5.23;3.07;;;12.10;99.90;;;;;;5060250;28;20216;-96
2022/06/30 10:56:59;;;;;;;3.83;2.90;;;12.10;99.90;;;;;;5061374;28;20208;-96
2022/06/30 10:59:34;;;;;;;3.50;3.20;;;12.20;99.90;;;;;;5059279;28;20354;-96
2022/06/30 11:02:26;;;;;;;4.93;2.90;;;12.00;99.90;;;;;;5062059;28;20199;-96
2022/06/30 11:05:28;;;;;;;4.40;2.80;;;12.00;99.90;;;;;;5061482;28;20242;-96
2022/06/30 11:08:38;;;;;;;3.37;3.07;;;12.00;99.90;;;;;;5061066;28;20213;-96
2022/06/30 11:11:48;;;;;;;3.77;2.67;;;12.00;99.90;;;;;;5058172;28;20219;-96
2022/06/30 11:14:28;;;;;;;3.20;2.63;;;12.00;99.90;;;;;;5050558;28;20218;-96
2022/06/30 11:17:00;;;;;;;3.20;2.83;;;12.00;99.90;;;;;;5058984;28;20620;-95
2022/06/30 11:19:37;;;;;;;2.80;2.60;;;12.00;99.90;;;;;;5057867;28;20228;-96
2022/06/30 11:22:10;;;;;;;2.80;2.60;;;12.00;99.90;;;;;;5057524;28;20204;-96
2022/06/30 11:24:49;;;;;;;2.90;2.70;;;11.90;99.90;;;;;;5058800;28;20659;-96
2022/06/30 11:27:23;;;;;;;2.60;2.40;;;11.90;99.90;;;;;;5058148;28;20200;-95
2022/06/30 11:29:59;;;;;;;3.03;2.73;;;11.90;99.90;;;;;;5039459;28;20213;-96
2022/06/30 11:32:31;;;;;;;3.33;2.47;;;11.90;99.90;;;;;;5056070;28;20236;-95
2022/06/30 11:35:06;;;;;;;4.00;2.30;;;11.90;99.90;;;;;;5040455;28;20223;-95
2022/06/30 11:37:42;;;;;;;2.50;2.30;;;11.90;99.90;;;;;;5057734;28;20212;-96
2022/06/30 11:40:20;;;;;;;3.03;2.60;;;11.90;99.90;;;;;;5057145;28;20319;-96
2022/06/30 11:42:54;;;;;;;3.60;2.87;;;11.90;99.90;;;;;;5057939;28;20220;-96
2022/06/30 11:45:29;;;;;;;4.00;2.80;;;11.90;99.90;;;;;;5057794;28;20203;-96
2022/06/30 11:48:04;;;;;;;2.80;2.60;;;11.90;99.90;;;;;;5057801;28;20211;-96
2022/06/30 11:50:36;;;;;;;3.10;2.80;;;11.90;99.90;;;;;;5056899;28;20200;-96
2022/06/30 11:53:07;;;;;;;3.30;3.00;;;11.90;99.90;;;;;;5058311;28;20208;-96
2022/06/30 11:55:44;;;;;;;3.23;2.93;;;11.90;99.90;;;;;;5057754;28;20788;-96
2022/06/30 11:58:27;;;;;;;3.93;2.97;;;11.90;99.90;;;;;;5057676;28;20215;-96
2022/06/30 12:01:15;;;;;;;5.13;2.70;;;11.80;99.90;;;;;;5057248;28;20235;-96
2022/06/30 12:03:48;;;;;;;4.33;2.50;;;11.80;99.90;;;;;;5058123;28;20664;-96
2022/06/30 12:06:25;;;;;;;2.83;2.53;;;11.80;99.90;;;;;;5057337;28;20266;-96
2022/06/30 12:08:57;;;;;;;3.17;2.37;;;11.80;99.90;;;;;;5037593;28;20653;-96
2022/06/30 12:11:34;;;;;;;3.33;2.63;;;11.90;99.90;;;;;;5037026;28;20266;-96
2022/06/30 12:14:11;;;;;;;3.10;2.57;;;11.90;99.90;;;;;;5037482;28;20217;-96
2022/06/30 12:16:43;;;;;;;2.33;2.10;;;11.90;99.90;;;;;;5037849;28;20208;-95
2022/06/30 12:19:17;;;;;;;2.83;2.60;;;11.80;99.90;;;;;;5037538;28;20213;-96
2022/06/30 12:21:49;;;;;;;2.97;2.67;;;11.90;99.90;;;;;;5036477;28;20244;-96
2022/06/30 12:24:23;;;;;;;2.63;2.40;;;11.80;99.90;;;;;;5037669;28;20549;-96
2022/06/30 12:26:58;;;;;;;3.00;2.70;;;11.80;99.90;;;;;;5037226;28;20330;-96
2022/06/30 12:32:24;;;;;;;2.53;2.33;;;11.70;99.90;;;;;;5036468;28;20216;-96
2022/06/30 12:34:57;;;;;;;2.90;2.70;;;11.70;99.90;;;;;;5039654;28;20222;-96
2022/06/30 12:37:32;;;;;;;3.00;2.80;;;11.70;99.90;;;;;;5038153;28;20201;-96
2022/06/30 12:40:06;;;;;;;3.27;2.87;;;11.70;99.90;;;;;;5036789;28;20239;-96
2022/06/30 12:42:46;;;;;;;3.27;2.60;;;11.70;99.90;;;;;;5037638;28;20205;-96
2022/06/30 12:45:46;;;;;;;4.30;3.00;;;11.70;99.90;;;;;;5043860;28;20200;-96
2022/06/30 12:48:43;;;;;;;4.27;2.57;;;11.70;99.90;;;;;;5065527;28;20209;-96
2022/06/30 12:51:19;;;;;;;3.33;3.03;;;11.70;99.90;;;;;;5067283;28;20215;-94
2022/06/30 12:54:01;;;;;;;3.17;2.77;;;11.80;99.90;;;;;;5065089;28;20763;-96
2022/06/30 12:56:33;;;;;;;4.77;2.83;;;11.80;99.90;;;;;;5065215;28;20208;-95
2022/06/30 12:59:07;;;;;;;3.87;2.87;;;11.80;99.90;;;;;;5065942;28;20280;-96
2022/06/30 13:01:47;;;;;;;4.00;3.00;;;11.90;99.90;;;;;;5061023;28;20242;-96
2022/06/30 13:04:32;;;;;;;2.77;2.50;;;11.90;99.90;;;;;;5065523;28;20284;-95
2022/06/30 13:07:04;;;;;;;3.77;2.63;;;11.90;99.90;;;;;;5061765;28;20271;-96
2022/06/30 13:09:36;;;;;;;4.77;2.83;;;11.90;99.90;;;;;;5061433;28;20672;-96
2022/06/30 13:12:12;;;;;;;4.10;2.90;;;11.90;99.90;;;;;;5064387;28;20273;-96
2022/06/30 13:14:49;;;;;;;3.97;3.13;;;12.00;99.90;;;;;;5063270;28;20653;-96
2022/06/30 13:17:27;;;;;;;3.20;2.90;;;12.00;99.90;;;;;;5064635;28;20656;-96
2022/06/30 13:19:59;;;;;;;3.67;2.90;;;12.00;99.90;;;;;;5064907;28;20605;-96
2022/06/30 13:22:31;;;;;;;3.83;2.90;;;12.10;99.90;;;;;;5065184;28;20196;-96
2022/06/30 13:25:06;;;;;;;3.60;3.30;;;12.10;99.90;;;;;;5063406;28;20262;-96
2022/06/30 13:27:43;;;;;;;3.87;3.47;;;12.20;99.90;;;;;;5062873;28;20231;-96
2022/06/30 13:30:18;;;;;;;3.63;3.33;;;12.20;99.90;;;;;;5062456;28;20207;-96
2022/06/30 13:32:53;;;;;;;4.17;3.87;;;12.20;99.90;;;;;;5062586;28;20203;-96
2022/06/30 13:35:25;;;;;;;5.73;4.10;;;12.20;99.90;;;;;;5039910;28;20231;-96
2022/06/30 13:37:57;;;;;;;4.40;3.47;;;12.30;99.90;;;;;;5040049;28;20227;-96
2022/06/30 13:40:30;;;;;;;4.73;3.80;;;12.40;99.90;;;;;;5041370;28;20215;-96
2022/06/30 13:43:02;;;;;;;5.63;3.90;;;12.60;99.90;;;;;;5025135;28;20262;-96
2022/06/30 13:45:36;;;;;;;5.47;4.00;;;12.60;99.90;;;;;;5040867;28;20237;-95
2022/06/30 13:48:09;;;;;;;5.27;3.57;;;12.70;99.90;;;;;;5040594;28;20278;-96
2022/06/30 13:50:42;;;;;;;4.03;3.63;;;12.90;99.90;;;;;;5038822;28;20220;-96
2022/06/30 13:53:14;;;;;;;4.47;3.37;;;13.00;99.90;;;;;;5022629;28;20240;-96
2022/06/30 13:55:51;;;;;;;4.13;3.53;;;13.10;99.90;;;;;;5040087;28;20209;-96
2022/06/30 14:01:12;;;;;;;5.27;3.63;;;13.40;99.90;;;;;;5061817;28;20238;-96
2022/06/30 14:03:48;;;;;;;3.50;2.80;;;13.60;99.90;;;;;;5069799;28;20212;-96
2022/06/30 14:06:20;;;;;;;3.67;2.50;;;13.70;99.90;;;;;;5054553;28;20211;-96
2022/06/30 14:08:54;;;;;;;4.13;2.70;;;13.90;99.90;;;;;;5073318;28;20198;-96
2022/06/30 14:11:27;;;;;;;2.90;2.60;;;14.10;99.90;;;;;;5071569;28;20230;-96
2022/06/30 14:14:01;;;;;;;2.90;2.40;;;14.10;99.90;;;;;;5072848;28;20209;-96
2022/06/30 14:16:35;;;;;;;3.90;2.40;;;14.30;99.90;;;;;;5072445;28;20215;-96
2022/06/30 14:19:12;;;;;;;2.30;2.10;;;14.30;99.90;;;;;;5072869;28;20195;-96
2022/06/30 14:21:47;;;;;;;2.53;2.33;;;14.40;99.90;;;;;;5063490;28;20266;-96
2022/06/30 14:33:08;;;;;;;3.87;1.97;;;14.70;99.90;;;;;;5055480;28;20189;-96
2022/06/30 14:35:45;;;;;;;6.37;2.33;;;14.60;99.90;;;;;;5057925;28;20212;-96
2022/06/30 14:38:18;;;;;;;2.10;1.90;;;14.70;99.90;;;;;;5058138;28;20208;-96
2022/06/30 14:40:50;;;;;;;3.37;2.03;;;14.60;99.90;;;;;;5057628;28;20193;-96
2022/06/30 14:43:22;;;;;;;3.50;2.20;;;14.60;99.90;;;;;;5058262;28;20181;-96
2022/06/30 14:46:00;;;;;;;2.37;2.00;;;14.70;99.90;;;;;;5058102;28;20201;-96
2022/06/30 14:48:32;;;;;;;2.90;2.13;;;14.80;99.90;;;;;;5057743;28;20260;-96
2022/06/30 14:51:27;;;;;;;3.77;2.37;;;15.00;99.90;;;;;;5049115;28;20231;-96
2022/06/30 14:54:00;;;;;;;2.97;2.23;;;15.10;99.90;;;;;;5050356;28;20207;-96
2022/06/30 14:56:36;;;;;;;3.13;2.30;;;15.40;99.90;;;;;;5052458;28;20217;-96
2022/06/30 14:59:07;;;;;;;2.57;2.00;;;15.60;99.90;;;;;;5051590;28;20208;-96
2022/06/30 15:01:54;;;;;;;2.47;2.27;;;15.80;99.90;;;;;;5053102;28;20255;-96
2022/06/30 15:04:28;;;;;;;2.47;2.17;;;16.10;99.90;;;;;;5058221;28;20194;-96
2022/06/30 15:07:06;;;;;;;2.07;1.87;;;16.20;99.90;;;;;;5058199;28;20189;-94
2022/06/30 15:34:32;;;;;;;2.70;2.30;;;16.30;99.90;;;;;;5382340;22;20280;-96
2022/06/30 15:40:11;;;;;;;3.03;2.40;;;16.40;99.90;;;;;;5036433;28;20210;-96
2022/06/30 15:42:58;;;;;;;2.80;2.20;;;16.50;99.90;;;;;;5021208;28;20256;-96
2022/06/30 15:45:47;;;;;;;2.37;1.90;;;16.40;99.90;;;;;;5035921;28;20193;-96
2022/06/30 16:08:10;;;;;;;2.50;1.90;;;16.90;99.90;;;;;;5996502;22;20689;-96
2022/06/30 16:19:28;;;;;;;2.73;2.07;;;17.20;99.90;;;;;;5033402;28;20256;-96
2022/06/30 16:22:05;;;;;;;3.20;2.20;;;17.20;99.90;;;;;;5037821;28;20256;-96
2022/06/30 16:24:39;;;;;;;3.17;2.20;;;17.20;99.90;;;;;;5030957;28;20205;-96
2022/06/30 16:27:13;;;;;;;2.87;2.27;;;17.10;99.90;;;;;;5031371;28;20213;-96
2022/06/30 16:29:48;;;;;;;4.03;2.10;;;17.10;99.90;;;;;;5024370;28;20212;-96
2022/06/30 16:39:39;;;;;;;2.30;1.70;;;17.30;99.90;;;;;;5034713;28;20273;-96
2022/06/30 16:48:14;;;;;;;2.37;1.90;;;17.70;99.90;;;;;;5031482;28;20206;-96
2022/06/30 16:50:48;;;;;;;2.57;2.00;;;17.90;99.90;;;;;;5005726;28;20203;-96
2022/06/30 16:53:21;;;;;;;4.67;2.20;;;18.00;99.90;;;;;;5005768;28;20853;-96
2022/06/30 16:59:15;;;;;;;2.63;1.80;;;18.40;99.90;;;;;;5025080;28;20673;-96
2022/06/30 17:01:48;;;;;;;2.87;1.50;;;18.60;99.90;;;;;;5035503;28;20201;-96
2022/06/30 17:04:28;;;;;;;1.57;1.43;;;18.50;99.90;;;;;;5036192;28;20215;-96
2022/06/30 17:07:01;;;;;;;1.97;1.30;;;18.50;99.90;;;;;;5037049;28;20201;-97
2022/06/30 17:09:45;;;;;;;1.30;1.20;;;18.60;99.90;;;;;;5033988;28;20205;-95
2022/06/30 17:12:24;;;;;;;2.70;1.43;;;18.40;99.90;;;;;;5036415;28;20196;-96
2022/06/30 17:15:00;;;;;;;2.87;1.60;;;18.40;99.90;;;;;;5037350;28;20225;-96
2022/06/30 17:17:41;;;;;;;2.37;1.50;;;18.40;99.90;;;;;;5036106;28;20209;-96
2022/06/30 17:20:16;;;;;;;2.90;2.00;;;18.50;99.90;;;;;;5038556;28;20549;-96
2022/06/30 17:31:39;;;;;;;2.63;2.10;;;18.80;99.90;;;;;;5013259;28;20198;-96
2022/06/30 17:40:20;;;;;;;6.13;2.10;;;19.00;99.90;;;;;;5013400;28;20206;-96
2022/06/30 17:57:52;;;;;;;3.87;2.70;;;19.80;99.90;;;;;;5881873;22;20283;-96